Time;durP1;ratioP1;P1;durP2;ratioP2;P2;SDS_P1;SDS_P2;PMS_P1;PMS_P2;Temp;Humidity;BMP_temperature;BMP_pressure;BME280_temperature;BME280_humidity;BME280_pressure;Samples;Min_cycle;Max_cycle;Signal;HPM_P1;HPM_P2
2022/06/04 00:01:24;;;;;;;4.72;2.95;;;;;;;;;;4964019;28;20516;-69
2022/06/04 00:03:49;;;;;;;3.60;3.30;;;;;;;;;;4967810;28;20031;-69
2022/06/04 00:06:14;;;;;;;6.82;3.55;;;;;;;;;;4975008;28;20395;-68
2022/06/04 00:08:39;;;;;;;5.97;4.25;;;;;;;;;;4985772;28;20377;-68
2022/06/04 00:16:33;;;;;;;9.85;4.20;;;;;;;;;;4983644;28;20077;-69
2022/06/04 00:18:58;;;;;;;5.25;4.10;;;;;;;;;;4985362;28;20046;-69
2022/06/04 00:21:23;;;;;;;7.32;4.47;;;;;;;;;;4984146;28;20034;-69
2022/06/04 00:23:49;;;;;;;6.63;4.40;;;;;;;;;;4983071;28;20030;-70
2022/06/04 00:26:14;;;;;;;5.22;4.28;;;;;;;;;;4982833;28;20030;-68
2022/06/04 00:28:40;;;;;;;5.40;4.35;;;;;;;;;;4985019;28;20029;-69
2022/06/04 00:31:05;;;;;;;5.93;4.30;;;;;;;;;;4985368;28;20039;-69
2022/06/04 00:33:31;;;;;;;4.35;3.95;;;;;;;;;;4984847;28;20028;-68
2022/06/04 00:35:57;;;;;;;5.80;4.03;;;;;;;;;;4985311;28;20279;-69
2022/06/04 00:38:23;;;;;;;5.45;4.60;;;;;;;;;;4979398;28;20109;-69
2022/06/04 00:41:07;;;;;;;6.03;4.05;;;;;;;;;;4980099;28;20054;-68
2022/06/04 00:43:49;;;;;;;6.22;4.22;;;;;;;;;;4977593;28;20351;-68
2022/06/04 00:46:24;;;;;;;5.47;4.85;;;;;;;;;;4966115;28;20266;-69
2022/06/04 00:48:49;;;;;;;6.05;4.50;;;;;;;;;;4995873;28;20064;-69
2022/06/04 00:51:14;;;;;;;5.07;4.55;;;;;;;;;;5004166;28;20516;-68
2022/06/04 00:53:41;;;;;;;7.15;5.00;;;;;;;;;;5000900;28;20418;-69
2022/06/04 00:56:25;;;;;;;10.35;4.75;;;;;;;;;;4968900;28;20025;-69
2022/06/04 00:58:50;;;;;;;5.82;5.07;;;;;;;;;;5003615;28;20047;-69
2022/06/04 01:01:24;;;;;;;11.23;5.38;;;;;;;;;;4986383;28;20076;-69
2022/06/04 01:03:57;;;;;;;7.55;5.15;;;;;;;;;;5005109;28;20033;-68
2022/06/04 01:06:31;;;;;;;8.60;5.78;;;;;;;;;;4984223;28;20174;-69
2022/06/04 01:09:24;;;;;;;7.28;5.20;;;;;;;;;;5000354;28;20528;-70
2022/06/04 01:12:10;;;;;;;9.67;6.20;;;;;;;;;;5002312;28;20116;-69
2022/06/04 01:14:35;;;;;;;7.65;5.80;;;;;;;;;;4998623;28;20030;-69
2022/06/04 01:17:19;;;;;;;9.55;5.68;;;;;;;;;;5004088;28;20046;-69
2022/06/04 01:20:10;;;;;;;7.22;6.25;;;;;;;;;;5005671;28;20168;-69
2022/06/04 01:23:13;;;;;;;8.57;5.80;;;;;;;;;;4998290;28;20029;-69
2022/06/04 01:25:57;;;;;;;9.88;6.40;;;;;;;;;;4981397;28;20433;-68
2022/06/04 01:28:23;;;;;;;9.48;6.80;;;;;;;;;;4999720;28;20041;-69
2022/06/04 01:30:50;;;;;;;9.02;6.35;;;;;;;;;;5002680;28;20040;-69
2022/06/04 01:33:25;;;;;;;11.40;6.97;;;;;;;;;;5001970;28;20075;-68
2022/06/04 01:35:55;;;;;;;11.15;6.88;;;;;;;;;;4987916;28;20025;-69
2022/06/04 01:38:24;;;;;;;10.32;5.75;;;;;;;;;;4996840;28;20371;-67
2022/06/04 01:41:08;;;;;;;7.15;5.43;;;;;;;;;;4980341;28;20480;-69
2022/06/04 01:43:33;;;;;;;8.18;6.10;;;;;;;;;;4997835;28;20053;-68
2022/06/04 01:46:01;;;;;;;9.03;6.23;;;;;;;;;;5004079;28;20061;-68
2022/06/04 01:48:28;;;;;;;7.13;6.07;;;;;;;;;;4980890;28;20276;-69
2022/06/04 01:50:58;;;;;;;7.57;6.57;;;;;;;;;;4982999;28;20026;-69
2022/06/04 01:53:26;;;;;;;10.38;5.70;;;;;;;;;;4960741;28;20030;-68
2022/06/04 01:55:56;;;;;;;8.48;5.65;;;;;;;;;;4959509;28;20385;-68
2022/06/04 01:58:35;;;;;;;9.05;6.43;;;;;;;;;;4960008;28;20033;-69
2022/06/04 02:01:05;;;;;;;8.82;5.15;;;;;;;;;;4963372;28;20486;-69
2022/06/04 02:03:37;;;;;;;9.23;5.43;;;;;;;;;;4962127;28;20693;-68
2022/06/04 02:06:07;;;;;;;9.40;5.88;;;;;;;;;;4963553;28;20105;-68
2022/06/04 02:08:37;;;;;;;11.23;5.70;;;;;;;;;;4958221;28;20039;-69
2022/06/04 02:11:08;;;;;;;8.57;5.57;;;;;;;;;;4957444;28;20509;-69
2022/06/04 02:13:34;;;;;;;8.90;5.90;;;;;;;;;;4959213;28;20208;-69
2022/06/04 02:16:08;;;;;;;8.82;5.50;;;;;;;;;;4961787;28;20019;-68
2022/06/04 02:18:33;;;;;;;7.20;5.20;;;;;;;;;;4961450;28;20155;-68
2022/06/04 02:20:59;;;;;;;8.48;5.60;;;;;;;;;;4961991;28;20465;-69
2022/06/04 02:23:25;;;;;;;10.82;5.80;;;;;;;;;;4962925;28;20022;-68
2022/06/04 02:25:51;;;;;;;9.57;5.70;;;;;;;;;;4977570;28;20033;-70
2022/06/04 02:28:16;;;;;;;8.05;5.40;;;;;;;;;;4981716;28;20026;-69
2022/06/04 02:30:54;;;;;;;6.85;5.70;;;;;;;;;;4976491;28;20536;-69
2022/06/04 02:33:26;;;;;;;11.07;5.95;;;;;;;;;;4981584;28;20125;-69
2022/06/04 02:35:54;;;;;;;10.93;6.10;;;;;;;;;;4980184;28;20037;-69
2022/06/04 02:38:27;;;;;;;7.63;5.43;;;;;;;;;;4979346;28;20030;-69
2022/06/04 02:41:04;;;;;;;10.60;5.30;;;;;;;;;;4966045;28;20031;-69
2022/06/04 02:43:36;;;;;;;9.90;5.68;;;;;;;;;;4959465;28;20027;-69
2022/06/04 02:46:06;;;;;;;8.70;5.07;;;;;;;;;;4962959;28;20027;-69
2022/06/04 02:48:33;;;;;;;5.45;4.95;;;;;;;;;;4971831;28;20108;-69
2022/06/04 02:51:02;;;;;;;9.18;5.20;;;;;;;;;;4982184;28;20168;-69
2022/06/04 02:53:30;;;;;;;7.63;5.25;;;;;;;;;;4975568;28;20121;-69
2022/06/04 02:56:18;;;;;;;7.43;4.50;;;;;;;;;;4976717;28;20097;-68
2022/06/04 02:58:46;;;;;;;8.13;5.15;;;;;;;;;;4962301;28;20440;-69
2022/06/04 03:01:12;;;;;;;8.27;5.07;;;;;;;;;;4983528;28;20049;-69
2022/06/04 03:03:38;;;;;;;8.60;4.68;;;;;;;;;;4962548;28;20058;-68
2022/06/04 03:06:07;;;;;;;8.80;5.05;;;;;;;;;;4975606;28;20329;-70
2022/06/04 03:08:34;;;;;;;8.60;4.70;;;;;;;;;;4975868;28;20113;-69
2022/06/04 03:10:59;;;;;;;6.15;4.88;;;;;;;;;;4978326;28;20027;-68
2022/06/04 03:13:25;;;;;;;6.45;4.78;;;;;;;;;;4978714;28;20037;-69
2022/06/04 03:15:50;;;;;;;8.27;4.70;;;;;;;;;;4940361;28;20070;-69
2022/06/04 03:18:17;;;;;;;7.25;5.13;;;;;;;;;;4958665;28;20077;-69
2022/06/04 03:20:42;;;;;;;8.43;4.68;;;;;;;;;;4974376;28;20030;-69
2022/06/04 03:23:08;;;;;;;5.53;4.45;;;;;;;;;;4979885;28;20040;-70
2022/06/04 03:25:34;;;;;;;7.55;5.10;;;;;;;;;;4976641;28;20018;-69
2022/06/04 03:27:59;;;;;;;9.07;5.03;;;;;;;;;;4983662;28;20019;-68
2022/06/04 03:30:26;;;;;;;7.65;4.95;;;;;;;;;;4980770;28;20097;-69
2022/06/04 03:32:51;;;;;;;9.80;5.05;;;;;;;;;;4969501;28;20034;-68
2022/06/04 03:35:17;;;;;;;7.93;5.13;;;;;;;;;;4987565;28;20489;-70
2022/06/04 03:37:42;;;;;;;7.60;5.15;;;;;;;;;;4963795;28;20128;-68
2022/06/04 03:40:08;;;;;;;7.15;4.90;;;;;;;;;;4984468;28;20442;-68
2022/06/04 03:42:33;;;;;;;6.85;5.15;;;;;;;;;;4988063;28;20033;-69
2022/06/04 03:44:59;;;;;;;7.38;4.65;;;;;;;;;;4985952;28;20025;-68
2022/06/04 03:47:25;;;;;;;9.52;5.30;;;;;;;;;;4990929;28;20053;-68
2022/06/04 03:49:53;;;;;;;8.30;4.70;;;;;;;;;;4991016;28;20042;-69
2022/06/04 03:52:18;;;;;;;8.00;5.38;;;;;;;;;;4988183;28;20030;-69
2022/06/04 03:54:52;;;;;;;9.68;5.18;;;;;;;;;;5006465;28;20034;-69
2022/06/04 04:00:18;;;;;;;9.27;4.78;;;;;;;;;;5006116;28;20574;-69
2022/06/04 04:02:46;;;;;;;9.20;4.88;;;;;;;;;;5007097;28;20033;-69
2022/06/04 04:05:12;;;;;;;12.10;5.95;;;;;;;;;;5009270;28;20100;-70
2022/06/04 04:07:38;;;;;;;9.50;5.80;;;;;;;;;;5004451;28;20018;-68
2022/06/04 04:10:04;;;;;;;11.95;5.82;;;;;;;;;;5006812;28;20329;-68
2022/06/04 04:12:30;;;;;;;11.68;5.82;;;;;;;;;;4990011;28;20047;-69
2022/06/04 04:14:57;;;;;;;9.90;5.50;;;;;;;;;;4985539;28;20056;-69
2022/06/04 04:17:23;;;;;;;9.75;5.93;;;;;;;;;;4989799;28;20444;-69
2022/06/04 04:19:48;;;;;;;11.68;6.90;;;;;;;;;;4970563;28;20099;-68
2022/06/04 04:22:13;;;;;;;11.25;6.90;;;;;;;;;;5005000;28;20460;-69
2022/06/04 04:24:39;;;;;;;11.60;7.07;;;;;;;;;;4987833;28;20088;-69
2022/06/04 04:27:05;;;;;;;11.88;7.05;;;;;;;;;;4988546;28;20067;-70
2022/06/04 04:29:31;;;;;;;11.75;7.43;;;;;;;;;;4989790;28;20026;-69
2022/06/04 04:31:56;;;;;;;15.07;8.63;;;;;;;;;;4969342;28;20029;-69
2022/06/04 04:34:22;;;;;;;11.07;7.18;;;;;;;;;;5007658;28;20030;-69
2022/06/04 04:36:47;;;;;;;13.90;7.22;;;;;;;;;;4984672;28;20053;-69
2022/06/04 04:39:13;;;;;;;12.10;7.53;;;;;;;;;;4986708;28;20030;-69
2022/06/04 04:41:39;;;;;;;8.23;7.30;;;;;;;;;;4979962;28;20030;-68
2022/06/04 04:44:04;;;;;;;11.45;7.70;;;;;;;;;;5005721;28;20029;-69
2022/06/04 04:46:29;;;;;;;12.25;7.18;;;;;;;;;;4982767;28;20025;-69
2022/06/04 04:48:54;;;;;;;10.57;6.72;;;;;;;;;;5003589;28;20440;-68
2022/06/04 04:51:22;;;;;;;18.05;6.95;;;;;;;;;;4986752;28;20052;-70
2022/06/04 04:53:47;;;;;;;8.70;6.60;;;;;;;;;;5000015;28;20084;-68
2022/06/04 04:56:17;;;;;;;8.52;6.63;;;;;;;;;;4984584;28;20507;-70
2022/06/04 04:58:43;;;;;;;11.55;6.57;;;;;;;;;;5001842;28;20381;-68
2022/06/04 05:01:15;;;;;;;12.98;6.38;;;;;;;;;;5000899;28;20561;-69
2022/06/04 05:03:40;;;;;;;10.60;6.82;;;;;;;;;;5000754;28;20030;-69
2022/06/04 05:06:05;;;;;;;10.90;5.93;;;;;;;;;;5004158;28;20033;-68
2022/06/04 05:08:31;;;;;;;9.45;6.57;;;;;;;;;;5001902;28;20030;-69
2022/06/04 05:10:56;;;;;;;8.63;6.68;;;;;;;;;;4981115;28;20207;-69
2022/06/04 05:13:21;;;;;;;12.10;6.72;;;;;;;;;;4986634;28;20010;-69
2022/06/04 05:15:47;;;;;;;12.52;6.60;;;;;;;;;;4981583;28;20546;-69
2022/06/04 05:18:13;;;;;;;8.10;5.88;;;;;;;;;;4986647;28;20021;-69
2022/06/04 05:20:41;;;;;;;10.07;6.03;;;;;;;;;;5001482;28;20374;-69
2022/06/04 05:23:06;;;;;;;9.90;6.15;;;;;;;;;;4984749;28;20314;-69
2022/06/04 05:25:31;;;;;;;11.52;6.18;;;;;;;;;;5002157;28;20065;-68
2022/06/04 05:27:57;;;;;;;8.52;5.75;;;;;;;;;;4983996;28;20033;-69
2022/06/04 05:30:24;;;;;;;11.82;5.95;;;;;;;;;;4985282;28;20022;-70
2022/06/04 05:32:49;;;;;;;10.05;5.95;;;;;;;;;;5000504;28;20030;-70
2022/06/04 05:35:14;;;;;;;11.63;6.05;;;;;;;;;;5000667;28;20285;-69
2022/06/04 05:37:40;;;;;;;8.77;5.55;;;;;;;;;;4981977;28;20129;-68
2022/06/04 05:40:06;;;;;;;10.23;5.85;;;;;;;;;;4965913;28;20384;-69
2022/06/04 05:42:32;;;;;;;8.70;5.20;;;;;;;;;;4985550;28;20499;-69
2022/06/04 05:44:58;;;;;;;11.45;5.32;;;;;;;;;;4983803;28;20037;-69
2022/06/04 05:47:23;;;;;;;8.77;6.03;;;;;;;;;;5004574;28;20491;-68
2022/06/04 05:49:48;;;;;;;8.90;5.60;;;;;;;;;;4982481;28;20026;-69
2022/06/04 05:52:14;;;;;;;11.75;5.57;;;;;;;;;;4999920;28;20459;-69
2022/06/04 05:54:39;;;;;;;9.57;5.88;;;;;;;;;;4985545;28;20085;-69
2022/06/04 05:57:05;;;;;;;9.63;5.65;;;;;;;;;;4979340;28;20088;-68
2022/06/04 05:59:30;;;;;;;8.57;5.20;;;;;;;;;;4985626;28;20028;-70
2022/06/04 06:01:55;;;;;;;8.63;5.45;;;;;;;;;;4996601;28;20048;-68
2022/06/04 06:04:21;;;;;;;11.93;5.53;;;;;;;;;;4985775;28;20076;-68
2022/06/04 06:06:48;;;;;;;8.95;5.15;;;;;;;;;;4998879;28;20171;-68
2022/06/04 06:09:14;;;;;;;10.73;5.80;;;;;;;;;;5003434;28;20095;-67
2022/06/04 06:11:40;;;;;;;7.43;4.35;;;;;;;;;;5003468;28;20026;-69
2022/06/04 06:14:07;;;;;;;10.25;5.32;;;;;;;;;;4986633;28;20018;-69
2022/06/04 06:16:33;;;;;;;6.28;4.45;;;;;;;;;;4983308;28;20061;-68
2022/06/04 06:18:59;;;;;;;9.55;4.93;;;;;;;;;;5000045;28;20060;-69
2022/06/04 06:21:25;;;;;;;9.45;5.00;;;;;;;;;;4982992;28;20041;-69
2022/06/04 06:23:51;;;;;;;10.45;5.00;;;;;;;;;;5000104;28;20034;-69
2022/06/04 06:26:25;;;;;;;7.93;4.55;;;;;;;;;;5000640;28;20034;-69
2022/06/04 06:28:51;;;;;;;8.80;4.68;;;;;;;;;;4982473;28;20044;-69
2022/06/04 06:31:18;;;;;;;6.78;4.75;;;;;;;;;;4983615;28;20436;-70
2022/06/04 20:57:46;;;;;;;11.85;7.75;;;;;;;17.04;100.00;102031.41;5057343;28;20882;-67
2022/06/04 21:00:12;;;;;;;9.70;8.15;;;;;;;16.95;100.00;102031.25;5056517;28;20063;-67
2022/06/04 21:02:38;;;;;;;14.60;7.60;;;;;;;17.23;100.00;102020.34;5059636;28;20031;-67
2022/06/04 21:05:04;;;;;;;11.98;7.97;;;;;;;17.04;100.00;102018.38;5042618;28;20033;-66
2022/06/04 21:07:29;;;;;;;11.98;7.63;;;;;;;16.96;100.00;102019.03;5058925;28;20124;-67
2022/06/04 21:09:55;;;;;;;9.77;7.28;;;;;;;17.04;100.00;102009.25;5058152;28;20104;-67
2022/06/04 21:12:21;;;;;;;14.35;8.27;;;;;;;17.16;100.00;102009.63;5055895;28;20487;-67
2022/06/04 21:14:49;;;;;;;9.90;7.90;;;;;;;17.00;100.00;102008.19;5058745;28;20398;-67
2022/06/04 21:17:14;;;;;;;12.07;8.05;;;;;;;16.64;100.00;101998.38;5058379;28;20455;-67
2022/06/04 21:19:39;;;;;;;11.80;8.68;;;;;;;17.01;100.00;101994.03;5059978;28;20086;-67
2022/06/04 21:22:06;;;;;;;14.68;8.57;;;;;;;16.99;100.00;101992.72;5055915;28;20547;-66
2022/06/04 21:24:33;;;;;;;12.20;7.78;;;;;;;16.95;100.00;101999.94;5040324;28;20193;-67
2022/06/04 21:26:58;;;;;;;22.05;8.15;;;;;;;17.23;100.00;101996.25;5056233;28;20480;-67
2022/06/04 21:29:24;;;;;;;12.40;7.63;;;;;;;17.00;100.00;101992.38;5058431;28;20035;-66
2022/06/04 21:31:49;;;;;;;11.05;8.05;;;;;;;16.76;100.00;101995.19;5061227;28;20024;-66
2022/06/04 21:40:02;;;;;;;12.70;8.10;;;;;;;16.94;100.00;102020.44;4996507;28;20038;-67
2022/06/04 21:42:29;;;;;;;10.13;7.88;;;;;;;17.02;100.00;102011.47;5051920;28;20044;-67
2022/06/04 21:44:55;;;;;;;11.68;8.20;;;;;;;16.97;100.00;102009.63;5079325;28;20591;-66
2022/06/04 21:47:20;;;;;;;12.48;8.45;;;;;;;17.12;100.00;102016.91;5081098;28;20462;-66
2022/06/04 21:49:47;;;;;;;13.10;8.35;;;;;;;16.83;100.00;102009.47;5062961;28;20059;-66
2022/06/04 21:52:12;;;;;;;9.95;8.02;;;;;;;16.74;100.00;102005.69;5027170;28;20025;-67
2022/06/04 21:54:38;;;;;;;9.80;8.07;;;;;;;17.05;100.00;101999.81;5040892;28;20072;-66
2022/06/04 21:57:04;;;;;;;9.52;8.02;;;;;;;16.78;100.00;102006.78;5057652;28;20060;-66
2022/06/04 21:59:31;;;;;;;11.27;8.07;;;;;;;16.62;100.00;102011.66;5058096;28;20028;-67
2022/06/04 22:01:56;;;;;;;9.30;7.68;;;;;;;16.59;100.00;102014.19;5042993;28;20048;-66
2022/06/04 22:04:22;;;;;;;12.13;8.05;;;;;;;16.95;100.00;102005.50;5058555;28;20447;-66
2022/06/04 22:06:47;;;;;;;10.02;8.10;;;;;;;16.64;100.00;102003.91;5058101;28;20035;-67
2022/06/04 22:09:14;;;;;;;12.38;7.65;;;;;;;16.59;100.00;102008.66;5043948;28;20108;-66
2022/06/04 22:14:26;;;;;;;8.38;7.47;;;;;;;16.85;100.00;102017.53;5045188;28;20612;-67
2022/06/04 22:16:51;;;;;;;12.55;7.50;;;;;;;16.86;100.00;102008.91;5045459;28;20085;-66
2022/06/04 22:19:16;;;;;;;10.55;7.65;;;;;;;16.73;100.00;102012.38;5045822;28;20445;-67
2022/06/04 22:21:42;;;;;;;8.98;7.63;;;;;;;16.69;100.00;102009.38;5026455;28;20059;-68
2022/06/04 22:24:09;;;;;;;9.20;7.93;;;;;;;16.74;100.00;102008.47;5042663;28;20033;-68
2022/06/04 22:26:37;;;;;;;11.35;8.20;;;;;;;16.41;100.00;102008.28;5027472;28;20036;-66
2022/06/04 22:29:03;;;;;;;11.45;8.18;;;;;;;16.52;100.00;102009.84;5028720;28;20029;-68
2022/06/04 22:31:28;;;;;;;11.07;7.63;;;;;;;16.62;100.00;102008.06;5046337;28;20462;-66
2022/06/04 22:33:53;;;;;;;12.63;7.82;;;;;;;16.66;100.00;102011.91;5014090;28;20057;-67
2022/06/04 22:36:19;;;;;;;11.55;8.02;;;;;;;16.36;100.00;102011.13;5028446;28;20063;-67
2022/06/04 22:38:44;;;;;;;10.68;8.43;;;;;;;16.50;100.00;102012.09;5039148;28;20047;-68
2022/06/04 22:41:11;;;;;;;11.63;7.45;;;;;;;16.58;100.00;102013.38;5046197;28;20150;-68
2022/06/04 22:43:43;;;;;;;10.43;7.90;;;;;;;16.51;100.00;102002.66;5025564;28;20094;-66
2022/06/04 22:46:18;;;;;;;8.88;7.53;;;;;;;16.38;100.00;101997.00;5045381;28;20031;-67
2022/06/04 22:48:44;;;;;;;10.18;8.38;;;;;;;16.05;100.00;101991.25;5044414;28;20028;-67
2022/06/04 22:51:10;;;;;;;11.73;7.85;;;;;;;16.10;100.00;101986.50;5026532;28;20372;-66
2022/06/04 22:53:36;;;;;;;8.95;8.05;;;;;;;16.50;100.00;101984.41;5039581;28;20559;-66
2022/06/04 22:56:04;;;;;;;11.15;8.38;;;;;;;16.36;100.00;101980.69;5044989;28;20045;-66
2022/06/04 22:58:30;;;;;;;11.77;7.95;;;;;;;16.32;100.00;101976.88;5041419;28;20031;-67
2022/06/04 23:00:55;;;;;;;13.07;8.38;;;;;;;16.44;100.00;101977.25;5044936;28;20033;-66
2022/06/04 23:03:23;;;;;;;14.85;8.77;;;;;;;16.49;100.00;101966.13;5044755;28;20501;-66
2022/06/04 23:05:49;;;;;;;10.77;8.50;;;;;;;16.22;100.00;101965.91;5044889;28;20053;-68
2022/06/04 23:08:16;;;;;;;11.10;7.35;;;;;;;16.44;100.00;101960.66;5042336;28;20027;-67
2022/06/04 23:21:47;;;;;;;10.93;8.75;;;;;;;16.11;100.00;101959.66;5064381;28;20110;-67
2022/06/04 23:24:15;;;;;;;12.15;8.45;;;;;;;16.06;100.00;101957.75;5030032;28;20082;-67
2022/06/04 23:26:45;;;;;;;12.45;8.90;;;;;;;15.75;100.00;101963.53;5045221;28;20415;-67
2022/06/04 23:29:11;;;;;;;12.40;8.52;;;;;;;16.00;100.00;101964.44;5066044;28;20024;-67
2022/06/04 23:31:36;;;;;;;13.88;9.60;;;;;;;16.16;100.00;101957.66;5062498;28;20553;-66
2022/06/04 23:34:02;;;;;;;11.65;8.93;;;;;;;15.70;100.00;101947.00;5063236;28;20114;-67
2022/06/04 23:36:28;;;;;;;9.85;8.88;;;;;;;16.02;100.00;101945.66;5046944;28;20068;-66
2022/06/04 23:38:53;;;;;;;10.38;8.82;;;;;;;15.68;100.00;101945.66;5058677;28;20101;-67
2022/06/04 23:44:03;;;;;;;12.23;8.57;;;;;;;16.01;100.00;101924.63;5043792;28;20040;-67
2022/06/04 23:46:28;;;;;;;13.00;8.30;;;;;;;16.08;100.00;101919.56;5045134;28;20025;-65
2022/06/04 23:48:54;;;;;;;13.32;9.80;;;;;;;15.83;100.00;101914.31;5042387;28;20032;-67
2022/06/04 23:51:20;;;;;;;10.68;8.60;;;;;;;15.92;100.00;101909.78;5025726;28;20031;-67
2022/06/04 23:53:46;;;;;;;15.02;9.50;;;;;;;15.71;100.00;101906.34;5039155;28;20106;-67
2022/06/04 23:56:11;;;;;;;14.35;8.80;;;;;;;15.52;100.00;101898.78;5044741;28;20076;-65
2022/06/04 23:58:40;;;;;;;11.70;9.10;;;;;;;15.95;100.00;101895.38;5040523;28;20627;-67
